Time;durP1;ratioP1;P1;durP2;ratioP2;P2;SDS_P1;SDS_P2;PMS_P1;PMS_P2;Temp;Humidity;BMP_temperature;BMP_pressure;BME280_temperature;BME280_humidity;BME280_pressure;Samples;Min_cycle;Max_cycle;Signal;HPM_P1;HPM_P2
2023/04/02 00:00:55;;;;;;;7.07;3.25;;;4.90;99.90;;;;;;5028124;28;20563;-62
2023/04/02 00:03:21;;;;;;;7.15;3.33;;;4.80;99.90;;;;;;5037745;28;20091;-62
2023/04/02 00:05:50;;;;;;;8.38;3.47;;;4.80;99.90;;;;;;5029680;28;20140;-62
2023/04/02 00:08:23;;;;;;;10.43;3.15;;;4.70;99.90;;;;;;5027870;28;20037;-61
2023/04/02 00:10:50;;;;;;;7.90;3.33;;;4.70;99.90;;;;;;5013871;28;20489;-61
2023/04/02 00:13:16;;;;;;;10.10;3.55;;;4.70;99.90;;;;;;5025165;28;20045;-62
2023/04/02 00:15:45;;;;;;;7.38;2.85;;;4.70;99.90;;;;;;5029765;28;20105;-62
2023/04/02 00:18:16;;;;;;;14.32;3.58;;;4.60;99.90;;;;;;5020462;28;20454;-62
2023/04/02 00:20:47;;;;;;;12.10;3.58;;;4.70;99.90;;;;;;5018653;28;20060;-62
2023/04/02 00:23:14;;;;;;;8.93;2.90;;;4.60;99.90;;;;;;5045239;28;20511;-62
2023/04/02 00:25:44;;;;;;;11.35;4.38;;;4.60;99.90;;;;;;5043152;28;20041;-62
2023/04/02 00:28:18;;;;;;;10.52;3.65;;;4.60;99.90;;;;;;5036941;28;20429;-63
2023/04/02 00:30:54;;;;;;;7.88;3.53;;;4.50;99.90;;;;;;5027888;28;20044;-62
2023/04/02 00:33:22;;;;;;;6.22;3.00;;;4.50;99.90;;;;;;5040945;28;20504;-62
2023/04/02 00:35:51;;;;;;;10.18;3.63;;;4.50;99.90;;;;;;5040444;28;20104;-62
2023/04/02 00:38:29;;;;;;;9.48;3.40;;;4.40;99.90;;;;;;5045115;28;20423;-62
2023/04/02 00:41:00;;;;;;;9.75;4.22;;;4.40;99.90;;;;;;5043005;28;20037;-62
2023/04/02 00:43:29;;;;;;;5.82;2.85;;;4.40;99.90;;;;;;5049383;28;20040;-62
2023/04/02 00:46:02;;;;;;;7.32;2.75;;;4.40;99.90;;;;;;5049727;28;20111;-61
2023/04/02 00:48:31;;;;;;;7.90;2.58;;;4.30;99.90;;;;;;5025271;28;20091;-62
2023/04/02 00:51:13;;;;;;;10.38;2.90;;;4.30;99.90;;;;;;5048740;28;20052;-62
2023/04/02 00:53:42;;;;;;;12.30;3.42;;;4.20;99.90;;;;;;5047048;28;20033;-62
2023/04/02 00:56:40;;;;;;;6.97;3.13;;;4.20;99.90;;;;;;5044705;28;20037;-61
2023/04/02 00:59:25;;;;;;;7.25;3.33;;;4.10;99.90;;;;;;5032551;28;20266;-62
2023/04/02 01:01:53;;;;;;;9.60;2.58;;;4.10;99.90;;;;;;5012781;28;20404;-61
2023/04/02 01:04:33;;;;;;;6.93;2.78;;;4.00;99.90;;;;;;5007670;28;20132;-62
2023/04/02 01:07:03;;;;;;;8.70;3.10;;;4.10;99.90;;;;;;5045811;28;20049;-62
2023/04/02 01:09:41;;;;;;;7.32;2.80;;;4.00;99.90;;;;;;5041868;28;20123;-61
2023/04/02 01:12:13;;;;;;;9.38;3.33;;;4.00;99.90;;;;;;5044586;28;20544;-61
2023/04/02 01:14:51;;;;;;;7.20;2.67;;;3.90;99.90;;;;;;5029732;28;20147;-62
2023/04/02 01:17:25;;;;;;;8.07;2.70;;;3.90;99.90;;;;;;5047435;28;20114;-62
2023/04/02 01:20:09;;;;;;;7.97;2.90;;;3.90;99.90;;;;;;5031117;28;20108;-62
2023/04/02 01:22:49;;;;;;;8.30;2.38;;;3.80;99.90;;;;;;5011698;28;20064;-61
2023/04/02 01:25:27;;;;;;;4.40;2.30;;;3.80;99.90;;;;;;5025457;28;20044;-62
2023/04/02 01:28:32;;;;;;;5.60;2.65;;;3.70;99.90;;;;;;5024435;28;20060;-62
2023/04/02 01:31:01;;;;;;;9.02;2.50;;;3.70;99.90;;;;;;5027314;28;20102;-62
2023/04/02 01:33:33;;;;;;;5.55;2.40;;;3.60;99.90;;;;;;5039236;28;20041;-60
2023/04/02 01:36:27;;;;;;;9.13;2.75;;;3.60;99.90;;;;;;5043190;28;20068;-62
2023/04/02 01:39:19;;;;;;;7.55;2.70;;;3.60;99.90;;;;;;5018032;28;20107;-61
2023/04/02 01:42:11;;;;;;;9.70;2.60;;;3.50;99.90;;;;;;5045809;28;20098;-61
2023/04/02 01:44:40;;;;;;;11.05;3.35;;;3.50;99.90;;;;;;5040383;28;20048;-61
2023/04/02 01:47:11;;;;;;;7.30;2.72;;;3.50;99.90;;;;;;5025795;28;20041;-61
2023/04/02 01:49:39;;;;;;;8.15;2.80;;;3.50;99.90;;;;;;5040127;28;20122;-62
2023/04/02 01:52:05;;;;;;;9.25;2.72;;;3.50;99.90;;;;;;5046728;28;20044;-61
2023/04/02 01:54:31;;;;;;;7.97;2.78;;;3.40;99.90;;;;;;5024428;28;20053;-62
2023/04/02 01:56:57;;;;;;;9.18;2.88;;;3.40;99.90;;;;;;5039680;28;20056;-61
2023/04/02 01:59:23;;;;;;;9.27;2.90;;;3.40;99.90;;;;;;5054579;28;20044;-62
2023/04/02 02:02:06;;;;;;;6.18;2.38;;;3.40;99.90;;;;;;5046345;28;20519;-61
2023/04/02 02:04:33;;;;;;;9.23;2.72;;;3.40;99.90;;;;;;5018214;28;20070;-62
2023/04/02 02:07:00;;;;;;;4.55;2.08;;;3.30;99.90;;;;;;5025624;28;20041;-61
2023/04/02 02:09:32;;;;;;;5.05;2.33;;;3.30;99.90;;;;;;5046145;28;20047;-62
2023/04/02 02:12:01;;;;;;;11.35;2.83;;;3.30;99.90;;;;;;5011681;28;20539;-61
2023/04/02 02:14:28;;;;;;;5.35;2.20;;;3.30;99.90;;;;;;5034992;28;20263;-61
2023/04/02 02:17:00;;;;;;;8.88;3.30;;;3.30;99.90;;;;;;5033727;28;20443;-62
2023/04/02 02:19:38;;;;;;;5.97;3.42;;;3.20;99.90;;;;;;5027134;28;20052;-62
2023/04/02 02:22:08;;;;;;;8.00;2.30;;;3.20;99.90;;;;;;5043806;28;20033;-61
2023/04/02 02:24:35;;;;;;;7.85;2.35;;;3.50;99.90;;;;;;5053113;28;20507;-62
2023/04/02 02:27:13;;;;;;;8.48;2.50;;;3.10;99.90;;;;;;5019313;28;20559;-61
2023/04/02 02:29:40;;;;;;;4.78;1.95;;;3.10;99.90;;;;;;5047206;28;20579;-62
2023/04/02 02:32:09;;;;;;;7.20;2.72;;;3.10;99.90;;;;;;5028391;28;20088;-61
2023/04/02 02:34:47;;;;;;;5.25;2.20;;;3.10;99.90;;;;;;5021801;28;20504;-62
2023/04/02 02:37:23;;;;;;;4.78;2.00;;;3.10;99.90;;;;;;5039195;28;20048;-62
2023/04/02 02:39:53;;;;;;;8.50;2.20;;;3.00;99.90;;;;;;5029001;28;20044;-61
2023/04/02 02:42:39;;;;;;;6.72;1.95;;;3.10;99.90;;;;;;5023014;28;20205;-61
2023/04/02 02:45:12;;;;;;;13.00;3.70;;;3.00;99.90;;;;;;5043911;28;20120;-61
2023/04/02 02:47:40;;;;;;;6.10;2.17;;;3.00;99.90;;;;;;5024662;28;20053;-62
2023/04/02 02:50:12;;;;;;;9.50;2.00;;;3.00;99.90;;;;;;5043317;28;20040;-62
2023/04/02 02:52:44;;;;;;;5.43;2.13;;;2.90;99.90;;;;;;5046550;28;20033;-62
2023/04/02 02:55:18;;;;;;;8.85;1.90;;;2.90;99.90;;;;;;5027348;28;20056;-61
2023/04/02 02:57:55;;;;;;;9.80;2.55;;;2.90;99.90;;;;;;5027826;28;20068;-61
2023/04/02 03:00:23;;;;;;;6.38;1.85;;;2.90;99.90;;;;;;5031962;28;20091;-62
2023/04/02 03:02:52;;;;;;;7.00;2.10;;;2.90;99.90;;;;;;5040808;28;20139;-62
2023/04/02 03:05:21;;;;;;;6.63;2.40;;;2.80;99.90;;;;;;5035547;28;20048;-62
2023/04/02 03:07:51;;;;;;;13.00;3.15;;;2.80;99.90;;;;;;5040757;28;20046;-61
2023/04/02 03:10:46;;;;;;;6.38;1.85;;;2.80;99.90;;;;;;5016279;28;20103;-61
2023/04/02 03:13:31;;;;;;;8.90;1.88;;;2.80;99.90;;;;;;5040548;28;20048;-62
2023/04/02 03:16:11;;;;;;;2.78;1.33;;;2.80;99.90;;;;;;5049152;28;20049;-61
2023/04/02 03:18:52;;;;;;;5.88;2.97;;;2.80;99.90;;;;;;5025071;28;20135;-61
2023/04/02 03:21:33;;;;;;;4.75;1.38;;;2.80;99.90;;;;;;5043922;28;20045;-62
2023/04/02 03:24:03;;;;;;;9.80;2.50;;;2.70;99.90;;;;;;5023839;28;20269;-62
2023/04/02 03:26:48;;;;;;;6.20;1.85;;;2.60;99.90;;;;;;5024577;28;20151;-62
2023/04/02 03:29:25;;;;;;;4.20;1.67;;;2.70;99.90;;;;;;5019138;28;20583;-62
2023/04/02 03:31:59;;;;;;;6.38;2.22;;;2.70;99.90;;;;;;5049726;28;20029;-62
2023/04/02 03:34:34;;;;;;;5.90;2.10;;;2.70;99.90;;;;;;5030015;28;20029;-61
2023/04/02 03:37:14;;;;;;;10.73;1.80;;;2.70;99.90;;;;;;5018103;28;20332;-62
2023/04/02 03:39:58;;;;;;;8.63;2.03;;;2.60;99.90;;;;;;5033674;28;20038;-62
2023/04/02 03:42:49;;;;;;;6.93;1.67;;;2.60;99.90;;;;;;5030051;28;20083;-62
2023/04/02 03:45:18;;;;;;;7.53;2.00;;;2.50;99.90;;;;;;5010140;28;20041;-62
2023/04/02 03:47:52;;;;;;;12.10;1.95;;;2.50;99.90;;;;;;5043606;28;20382;-61
2023/04/02 03:50:47;;;;;;;7.88;2.10;;;2.50;99.90;;;;;;5043722;28;20033;-61
2023/04/02 03:53:13;;;;;;;5.07;1.67;;;2.50;99.90;;;;;;5007919;28;20408;-62
2023/04/02 03:55:40;;;;;;;7.30;2.05;;;2.50;99.90;;;;;;5034719;28;20041;-61
2023/04/02 03:58:37;;;;;;;4.38;1.90;;;2.50;99.90;;;;;;5000315;28;20577;-61
2023/04/02 04:01:17;;;;;;;7.35;1.83;;;2.50;99.90;;;;;;5033772;28;20117;-61
2023/04/02 04:03:44;;;;;;;6.80;1.90;;;2.50;99.90;;;;;;5044726;28;20408;-61
2023/04/02 04:06:23;;;;;;;7.35;1.80;;;2.50;99.90;;;;;;5045078;28;20048;-61
2023/04/02 04:08:58;;;;;;;5.95;1.63;;;2.50;99.90;;;;;;5016020;28;20053;-62
2023/04/02 04:11:29;;;;;;;9.27;2.72;;;2.40;99.90;;;;;;5035248;28;20059;-61
2023/04/02 04:14:40;;;;;;;3.60;1.67;;;2.40;99.90;;;;;;5035948;28;20036;-62
2023/04/02 04:17:23;;;;;;;14.52;3.50;;;2.40;99.90;;;;;;5018861;28;20447;-61
2023/04/02 04:19:50;;;;;;;8.77;2.10;;;2.40;99.90;;;;;;5026504;28;20045;-61
2023/04/02 04:22:29;;;;;;;11.48;2.03;;;2.40;99.90;;;;;;5026333;28;20103;-61
2023/04/02 04:24:57;;;;;;;6.50;1.90;;;2.40;99.90;;;;;;5025276;28;20045;-61
2023/04/02 04:27:43;;;;;;;4.00;1.70;;;2.40;99.90;;;;;;5047284;28;20056;-62
2023/04/02 04:30:33;;;;;;;6.38;2.15;;;2.40;99.90;;;;;;5052255;28;20111;-62
2023/04/02 04:33:09;;;;;;;5.50;1.55;;;2.40;99.90;;;;;;5048820;28;20127;-61
2023/04/02 04:35:47;;;;;;;5.35;1.50;;;2.40;99.90;;;;;;5051074;28;20315;-61
2023/04/02 04:38:38;;;;;;;6.47;1.55;;;2.40;99.90;;;;;;5043736;28;20043;-62
2023/04/02 04:41:14;;;;;;;5.38;2.03;;;2.40;99.90;;;;;;5047917;28;20042;-62
2023/04/02 04:44:16;;;;;;;7.22;2.10;;;2.40;99.90;;;;;;5030100;28;20042;-62
2023/04/02 04:46:54;;;;;;;7.45;1.80;;;2.30;99.90;;;;;;5036208;28;20052;-61
2023/04/02 04:49:24;;;;;;;6.20;1.40;;;2.40;99.90;;;;;;5029845;28;20412;-62
2023/04/02 04:51:53;;;;;;;4.85;1.80;;;2.40;99.90;;;;;;5043994;28;20102;-61
2023/04/02 04:54:19;;;;;;;5.68;1.85;;;2.30;99.90;;;;;;5043331;28;20048;-62
2023/04/02 04:56:53;;;;;;;9.50;1.80;;;2.30;99.90;;;;;;5023553;28;20574;-62
2023/04/02 04:59:40;;;;;;;4.43;1.60;;;2.30;99.90;;;;;;5042415;28;20511;-62
2023/04/02 05:02:22;;;;;;;6.35;1.52;;;2.30;99.90;;;;;;5042170;28;20041;-62
2023/04/02 05:04:51;;;;;;;7.70;1.95;;;2.30;99.90;;;;;;5045513;28;20048;-62
2023/04/02 05:07:45;;;;;;;5.60;1.52;;;2.30;99.90;;;;;;5050308;28;20087;-62
2023/04/02 05:10:36;;;;;;;7.68;1.58;;;2.30;99.90;;;;;;5047872;28;20041;-62
2023/04/02 05:13:18;;;;;;;4.55;1.40;;;2.30;99.90;;;;;;5016497;28;20040;-62
2023/04/02 05:15:48;;;;;;;3.95;1.60;;;2.30;99.90;;;;;;5022312;28;20049;-62
2023/04/02 05:18:30;;;;;;;6.75;2.47;;;2.30;99.90;;;;;;5021330;28;20042;-62
2023/04/02 05:21:06;;;;;;;6.07;1.40;;;2.30;99.90;;;;;;5043231;28;20090;-62
2023/04/02 05:23:50;;;;;;;6.55;1.63;;;2.30;99.90;;;;;;5043679;28;20397;-61
2023/04/02 05:26:41;;;;;;;3.88;1.40;;;2.30;99.90;;;;;;5042766;28;20040;-61
2023/04/02 05:29:12;;;;;;;9.80;2.05;;;2.30;99.90;;;;;;5042783;28;20094;-61
2023/04/02 05:31:48;;;;;;;3.60;1.48;;;2.40;99.90;;;;;;5023893;28;20044;-62
2023/04/02 05:34:23;;;;;;;7.95;1.40;;;2.30;99.90;;;;;;5043719;28;20412;-62
2023/04/02 05:36:49;;;;;;;4.88;2.03;;;2.40;99.90;;;;;;5023920;28;20076;-62
2023/04/02 05:39:21;;;;;;;7.93;1.75;;;2.40;99.90;;;;;;5038348;28;20124;-62
2023/04/02 05:41:47;;;;;;;8.23;1.42;;;2.40;99.90;;;;;;5026598;28;20040;-61
2023/04/02 05:44:29;;;;;;;7.00;1.38;;;2.50;99.90;;;;;;5042762;28;20033;-62
2023/04/02 05:47:03;;;;;;;5.55;1.45;;;2.50;99.90;;;;;;5028928;28;20562;-62
2023/04/02 05:49:48;;;;;;;4.90;1.42;;;2.50;99.90;;;;;;5028169;28;20106;-61
2023/04/02 05:52:23;;;;;;;4.35;1.48;;;2.60;99.90;;;;;;5046198;28;20288;-61
2023/04/02 05:55:02;;;;;;;5.22;1.50;;;2.60;99.90;;;;;;5009786;28;20460;-62
2023/04/02 05:57:36;;;;;;;5.70;1.30;;;2.70;99.90;;;;;;5030475;28;20057;-62
2023/04/02 06:00:12;;;;;;;7.05;1.52;;;2.70;99.90;;;;;;5044731;28;20037;-61
2023/04/02 06:03:06;;;;;;;7.15;1.55;;;2.80;99.90;;;;;;5048778;28;20095;-61
2023/04/02 06:05:44;;;;;;;5.40;1.60;;;2.80;99.90;;;;;;5049601;28;20043;-62
2023/04/02 06:08:30;;;;;;;4.05;1.10;;;2.80;99.90;;;;;;5024000;28;20124;-62
2023/04/02 06:11:06;;;;;;;6.22;1.90;;;2.90;99.90;;;;;;5042692;28;20637;-62
2023/04/02 06:13:32;;;;;;;5.05;1.50;;;2.90;99.90;;;;;;5026051;28;20045;-62
2023/04/02 06:15:58;;;;;;;6.60;1.60;;;3.00;99.90;;;;;;5013811;28;20075;-62
2023/04/02 06:18:30;;;;;;;5.95;1.60;;;3.00;99.90;;;;;;5028638;28;20056;-62
2023/04/02 06:20:56;;;;;;;6.90;1.98;;;3.00;99.90;;;;;;5029797;28;20036;-62
2023/04/02 06:23:40;;;;;;;6.50;1.48;;;3.10;99.90;;;;;;5036137;28;20106;-62
2023/04/02 06:26:28;;;;;;;5.28;2.13;;;3.20;99.90;;;;;;5041942;28;20048;-62
2023/04/02 06:29:00;;;;;;;5.57;1.13;;;3.20;99.90;;;;;;5028398;28;20098;-62
2023/04/02 06:31:54;;;;;;;6.18;1.65;;;3.30;99.90;;;;;;5019412;28;20347;-62
2023/04/02 06:34:23;;;;;;;8.25;3.13;;;3.30;99.90;;;;;;5045938;28;20455;-61
2023/04/02 06:36:53;;;;;;;6.53;1.50;;;3.40;99.90;;;;;;5031815;28;20203;-62
2023/04/02 06:39:21;;;;;;;5.75;1.90;;;3.50;99.90;;;;;;5019148;28;20473;-62
2023/04/02 06:42:05;;;;;;;3.67;1.35;;;3.50;99.90;;;;;;5042520;28;20043;-62
2023/04/02 06:44:35;;;;;;;5.35;1.88;;;3.60;99.90;;;;;;5032346;28;20068;-61
2023/04/02 06:47:17;;;;;;;7.47;1.70;;;3.60;99.90;;;;;;5027747;28;20066;-62
2023/04/02 06:50:06;;;;;;;4.35;1.20;;;3.70;99.90;;;;;;5022788;28;20425;-62
2023/04/02 06:52:34;;;;;;;7.20;1.50;;;3.70;99.90;;;;;;5005198;28;20048;-62
2023/04/02 06:55:19;;;;;;;7.20;1.42;;;3.70;99.90;;;;;;5046448;28;20477;-61
2023/04/02 06:57:45;;;;;;;;;;;3.80;99.90;;;;;;5041909;28;20077;-61
2023/04/02 07:00:56;;;;;;;8.05;1.52;;;3.80;99.90;;;;;;5008908;28;19917;-61
2023/04/02 07:03:26;;;;;;;4.65;1.70;;;3.90;99.90;;;;;;5020652;28;20052;-62
2023/04/02 07:05:52;;;;;;;5.25;1.42;;;4.10;99.90;;;;;;5007427;28;20037;-62
2023/04/02 07:08:18;;;;;;;7.55;1.52;;;4.10;99.90;;;;;;5028265;28;20491;-62
2023/04/02 07:10:44;;;;;;;6.15;1.60;;;4.20;99.90;;;;;;5020608;28;20455;-62
2023/04/02 07:13:15;;;;;;;6.15;1.70;;;4.20;99.90;;;;;;5048266;28;20053;-61
2023/04/02 07:15:41;;;;;;;5.82;1.50;;;4.30;99.90;;;;;;5021347;28;20990;-61
2023/04/02 07:18:34;;;;;;;4.40;1.30;;;4.40;99.90;;;;;;5044698;28;20118;-60
2023/04/02 07:21:00;;;;;;;8.30;1.63;;;4.60;99.90;;;;;;5028007;28;20045;-62
2023/04/02 07:23:26;;;;;;;4.45;1.40;;;4.60;99.90;;;;;;5025507;28;20041;-61
2023/04/02 07:25:53;;;;;;;4.50;1.20;;;4.70;99.90;;;;;;5027038;28;20047;-61
2023/04/02 07:28:20;;;;;;;4.20;1.25;;;4.70;99.90;;;;;;5026805;28;20041;-61
2023/04/02 07:30:46;;;;;;;5.13;1.50;;;4.80;99.90;;;;;;5025364;28;20044;-62
2023/04/02 07:33:17;;;;;;;6.82;1.60;;;4.90;99.90;;;;;;5035767;28;20051;-61
2023/04/02 07:35:42;;;;;;;4.93;1.20;;;5.00;99.90;;;;;;5044378;28;20041;-61
2023/04/02 07:38:08;;;;;;;4.90;1.20;;;5.00;99.90;;;;;;5031032;28;20045;-62
2023/04/02 07:40:34;;;;;;;5.80;1.10;;;5.00;99.90;;;;;;5041561;28;20069;-62
2023/04/02 07:43:00;;;;;;;7.88;1.20;;;5.10;99.90;;;;;;5007090;28;20037;-62
2023/04/02 07:45:26;;;;;;;3.20;1.17;;;5.00;99.90;;;;;;5040977;28;20067;-61
2023/04/02 07:47:52;;;;;;;6.40;1.80;;;5.00;99.90;;;;;;5002015;28;20040;-62
2023/04/02 07:50:18;;;;;;;5.80;1.10;;;5.00;99.90;;;;;;5020164;28;20044;-62
2023/04/02 07:52:45;;;;;;;5.72;1.90;;;4.90;99.90;;;;;;5018101;28;20041;-62
2023/04/02 07:55:13;;;;;;;3.75;1.15;;;4.90;99.90;;;;;;5009485;28;20056;-62
2023/04/02 07:57:50;;;;;;;4.00;1.52;;;4.90;99.90;;;;;;5042041;28;20032;-62
2023/04/02 08:00:17;;;;;;;9.68;1.48;;;4.90;99.90;;;;;;5026457;28;20138;-61
2023/04/02 08:02:43;;;;;;;5.28;1.40;;;5.00;99.90;;;;;;5022898;28;20041;-61
2023/04/02 08:05:09;;;;;;;4.50;1.13;;;5.10;99.90;;;;;;5042401;28;20405;-62
2023/04/02 08:07:36;;;;;;;8.60;1.30;;;5.20;99.90;;;;;;5029942;28;20056;-61
2023/04/02 08:10:02;;;;;;;8.10;1.42;;;5.30;99.90;;;;;;5027368;28;20048;-61
2023/04/02 08:12:28;;;;;;;2.85;1.02;;;5.30;99.90;;;;;;5042966;28;20068;-61
2023/04/02 08:14:54;;;;;;;2.63;1.05;;;5.30;99.90;;;;;;5023159;28;20142;-61
2023/04/02 08:17:20;;;;;;;6.47;1.48;;;5.20;99.90;;;;;;5028951;28;20036;-61
2023/04/02 08:19:46;;;;;;;5.97;2.00;;;5.20;99.90;;;;;;5027879;28;20527;-62
2023/04/02 08:22:12;;;;;;;9.73;1.70;;;5.20;99.90;;;;;;5030097;28;20471;-62
2023/04/02 08:24:38;;;;;;;3.95;1.30;;;5.20;99.90;;;;;;5026927;28;20426;-61
2023/04/02 08:27:04;;;;;;;5.40;1.30;;;5.10;99.90;;;;;;5024370;28;20151;-61
2023/04/02 08:29:31;;;;;;;3.95;1.20;;;5.10;99.90;;;;;;5044870;28;20075;-61
2023/04/02 08:32:00;;;;;;;4.28;1.48;;;5.20;99.90;;;;;;5046879;28;20131;-61
2023/04/02 08:34:26;;;;;;;3.85;1.33;;;5.20;99.90;;;;;;5026798;28;20051;-61
2023/04/02 08:36:56;;;;;;;4.00;1.38;;;5.30;99.90;;;;;;5031117;28;20037;-61
2023/04/02 08:39:24;;;;;;;4.53;1.25;;;5.50;99.90;;;;;;5041856;28;20507;-61
2023/04/02 08:42:02;;;;;;;6.50;1.55;;;5.60;99.90;;;;;;5050581;28;20408;-61
2023/04/02 08:44:35;;;;;;;5.20;1.35;;;5.70;99.90;;;;;;5042173;28;20400;-61
2023/04/02 08:47:08;;;;;;;5.90;1.40;;;5.90;99.90;;;;;;5047165;28;20064;-61
2023/04/02 08:49:40;;;;;;;4.03;1.10;;;5.90;99.90;;;;;;5049677;28;20037;-61
2023/04/02 08:52:14;;;;;;;3.10;1.13;;;5.90;99.90;;;;;;5043721;28;20069;-61
2023/04/02 08:54:42;;;;;;;4.03;1.50;;;6.10;99.90;;;;;;5022233;28;20059;-62
2023/04/02 08:57:20;;;;;;;7.95;1.60;;;6.20;99.90;;;;;;5012391;28;20037;-62
2023/04/02 08:59:46;;;;;;;8.52;1.55;;;6.20;99.90;;;;;;5045662;28;20041;-61
2023/04/02 09:02:38;;;;;;;3.95;1.40;;;6.30;99.90;;;;;;5045921;28;20029;-62
2023/04/02 09:05:06;;;;;;;4.53;1.30;;;6.30;99.90;;;;;;5024051;28;20044;-61
2023/04/02 09:07:33;;;;;;;3.83;1.30;;;6.50;99.90;;;;;;5021053;28;20041;-61
2023/04/02 09:09:59;;;;;;;4.95;1.45;;;6.70;99.90;;;;;;5026201;28;20049;-62
2023/04/02 09:12:29;;;;;;;7.13;1.40;;;6.90;99.90;;;;;;5026877;28;20045;-61
2023/04/02 09:15:11;;;;;;;3.33;1.17;;;6.90;99.90;;;;;;5040958;28;20029;-62
2023/04/02 09:17:38;;;;;;;5.78;2.50;;;7.10;99.90;;;;;;5048712;28;20111;-62
2023/04/02 09:20:20;;;;;;;5.60;1.25;;;7.30;99.90;;;;;;5047805;28;20056;-61
2023/04/02 09:22:49;;;;;;;4.15;1.20;;;7.40;99.90;;;;;;5051196;28;20105;-61
2023/04/02 09:25:20;;;;;;;5.22;1.40;;;7.60;99.90;;;;;;5034996;28;20052;-61
2023/04/02 09:27:51;;;;;;;5.90;1.60;;;7.70;99.90;;;;;;5043015;28;20128;-61
2023/04/02 09:30:23;;;;;;;4.93;1.52;;;7.80;99.90;;;;;;5041910;28;20112;-61
2023/04/02 09:32:57;;;;;;;4.63;1.55;;;8.00;99.90;;;;;;5052960;28;20047;-61
2023/04/02 09:35:25;;;;;;;2.38;0.90;;;8.10;99.90;;;;;;5042706;28;20077;-61
2023/04/02 09:38:06;;;;;;;4.25;0.90;;;8.00;99.90;;;;;;5030621;28;20111;-62
2023/04/02 09:40:52;;;;;;;4.18;1.40;;;7.90;99.90;;;;;;5047302;28;20587;-61
2023/04/02 09:43:20;;;;;;;4.38;1.08;;;7.90;99.90;;;;;;5009005;28;20244;-60
2023/04/02 09:46:04;;;;;;;4.90;1.45;;;7.90;99.90;;;;;;5029917;28;20108;-60
2023/04/02 09:49:02;;;;;;;8.20;1.20;;;8.00;99.90;;;;;;5041700;28;20037;-61
2023/04/02 09:51:33;;;;;;;4.90;1.52;;;8.10;99.90;;;;;;5020118;28;20068;-60
2023/04/02 09:54:01;;;;;;;3.97;1.10;;;8.30;99.90;;;;;;5039602;28;20123;-61
2023/04/02 09:56:28;;;;;;;2.83;0.88;;;8.50;99.90;;;;;;5035691;28;20969;-60
2023/04/02 09:59:14;;;;;;;3.72;0.90;;;8.70;99.90;;;;;;5038740;28;20037;-59
2023/04/02 10:01:56;;;;;;;4.45;1.00;;;8.90;99.90;;;;;;5039203;28;20457;-61
2023/04/02 10:04:43;;;;;;;3.00;0.90;;;8.80;99.90;;;;;;5026205;28;20041;-59
2023/04/02 10:07:48;;;;;;;3.33;1.00;;;8.80;99.90;;;;;;5025607;28;20402;-61
2023/04/02 10:10:29;;;;;;;4.20;1.02;;;8.90;99.90;;;;;;5019302;28;20043;-61
2023/04/02 10:13:32;;;;;;;2.72;1.02;;;9.20;99.90;;;;;;5042742;28;20048;-60
2023/04/02 10:16:01;;;;;;;3.33;0.85;;;9.10;99.90;;;;;;5024299;28;20526;-61
2023/04/02 10:19:01;;;;;;;4.28;1.00;;;9.40;99.90;;;;;;5041684;28;20090;-60
2023/04/02 10:21:32;;;;;;;5.07;1.58;;;9.50;99.90;;;;;;5041629;28;20049;-60
2023/04/02 10:23:58;;;;;;;2.45;0.68;;;9.50;99.90;;;;;;5044705;28;20065;-60
2023/04/02 10:26:27;;;;;;;8.27;1.08;;;9.70;99.90;;;;;;5024636;28;20037;-60
2023/04/02 10:29:19;;;;;;;3.95;1.10;;;9.60;99.90;;;;;;5023986;28;20439;-61
2023/04/02 10:31:45;;;;;;;6.00;0.93;;;9.50;99.90;;;;;;5041551;28;20090;-61
2023/04/02 10:34:34;;;;;;;4.32;0.85;;;9.60;99.90;;;;;;5025486;28;20399;-59
2023/04/02 10:37:30;;;;;;;3.03;0.73;;;9.50;99.90;;;;;;5028179;28;20055;-61
2023/04/02 10:40:26;;;;;;;3.25;0.95;;;9.60;99.90;;;;;;5041709;28;20032;-61
2023/04/02 10:43:25;;;;;;;5.10;0.90;;;9.80;99.90;;;;;;5023030;28;20064;-59
2023/04/02 10:46:10;;;;;;;3.97;1.10;;;9.90;99.90;;;;;;5048541;28;20039;-61
2023/04/02 10:48:51;;;;;;;2.72;0.68;;;9.90;99.90;;;;;;5025363;28;20045;-61
2023/04/02 10:51:42;;;;;;;4.95;1.02;;;10.00;99.90;;;;;;5020727;28;20072;-61
2023/04/02 10:54:14;;;;;;;2.80;0.73;;;10.10;99.90;;;;;;5040176;28;20045;-61
2023/04/02 10:56:41;;;;;;;2.65;0.65;;;10.20;99.90;;;;;;5038152;28;20037;-61
2023/04/02 10:59:13;;;;;;;3.97;0.73;;;10.10;99.90;;;;;;5035268;28;20124;-61
2023/04/02 11:01:42;;;;;;;4.13;1.10;;;10.10;99.90;;;;;;5038733;28;20082;-61
2023/04/02 11:04:17;;;;;;;3.03;0.65;;;10.30;99.90;;;;;;5032013;28;20040;-60
2023/04/02 11:06:55;;;;;;;3.70;0.80;;;10.20;99.90;;;;;;5044106;28;20033;-59
2023/04/02 11:09:28;;;;;;;2.92;0.63;;;10.30;99.90;;;;;;5021773;28;20532;-60
2023/04/02 11:11:56;;;;;;;3.88;0.98;;;10.40;99.90;;;;;;5039397;28;20102;-61
2023/04/02 11:14:28;;;;;;;3.03;1.02;;;10.60;99.90;;;;;;5020635;28;20178;-61
2023/04/02 11:16:57;;;;;;;5.88;0.95;;;10.50;99.90;;;;;;5042831;28;20055;-61
2023/04/02 11:19:29;;;;;;;3.17;0.90;;;10.60;99.90;;;;;;5034540;28;20059;-59
2023/04/02 11:22:12;;;;;;;5.50;1.02;;;10.80;99.90;;;;;;5040929;28;20043;-61
2023/04/02 11:24:48;;;;;;;2.65;0.82;;;10.90;99.90;;;;;;5024829;28;20047;-60
2023/04/02 11:27:20;;;;;;;2.95;0.70;;;10.90;99.90;;;;;;5044159;28;20119;-61
2023/04/02 11:30:10;;;;;;;2.95;0.93;;;11.00;99.90;;;;;;5038495;28;20387;-60
2023/04/02 11:32:41;;;;;;;4.57;1.13;;;11.10;99.90;;;;;;5039501;28;20044;-60
2023/04/02 11:35:26;;;;;;;4.43;1.10;;;11.20;99.90;;;;;;5041718;28;20032;-61
2023/04/02 11:37:56;;;;;;;2.92;0.82;;;11.10;99.50;;;;;;5044632;28;20042;-61
2023/04/02 11:40:47;;;;;;;2.38;0.75;;;11.10;99.90;;;;;;5039290;28;20046;-61
2023/04/02 11:43:46;;;;;;;1.95;0.68;;;11.10;99.60;;;;;;5031374;28;20041;-60
2023/04/02 11:46:15;;;;;;;5.07;1.27;;;10.90;99.00;;;;;;5006294;28;20054;-63
2023/04/02 11:48:41;;;;;;;4.00;1.10;;;10.90;99.70;;;;;;5037346;28;20055;-60
2023/04/02 11:51:19;;;;;;;2.75;0.80;;;10.80;99.90;;;;;;5026180;28;20156;-61
2023/04/02 11:53:46;;;;;;;4.07;0.80;;;10.90;99.90;;;;;;5040858;28;20036;-59
2023/04/02 11:56:47;;;;;;;2.75;0.73;;;11.00;99.90;;;;;;5045831;28;20083;-61
2023/04/02 11:59:20;;;;;;;6.63;1.30;;;11.20;99.90;;;;;;5018754;28;20058;-60
2023/04/02 12:02:05;;;;;;;4.38;1.20;;;11.20;99.90;;;;;;5036321;28;20476;-61
2023/04/02 12:04:51;;;;;;;3.08;0.90;;;11.20;99.90;;;;;;5014752;28;20052;-61
2023/04/02 12:07:51;;;;;;;2.60;0.70;;;11.30;99.90;;;;;;5045815;28;20045;-60
2023/04/02 12:10:21;;;;;;;5.80;1.00;;;11.30;99.90;;;;;;5046785;28;20045;-61
2023/04/02 12:12:48;;;;;;;4.45;0.88;;;11.40;99.90;;;;;;5043513;28;20029;-61
2023/04/02 12:15:35;;;;;;;5.85;1.45;;;11.50;99.70;;;;;;5030645;28;20040;-61
2023/04/02 12:18:22;;;;;;;4.90;1.27;;;11.70;99.90;;;;;;5036530;28;20045;-61
2023/04/02 12:20:55;;;;;;;4.97;0.95;;;11.60;99.30;;;;;;5046537;28;20049;-60
2023/04/02 12:23:35;;;;;;;5.18;1.33;;;11.40;99.50;;;;;;5029565;28;20073;-61
2023/04/02 12:26:05;;;;;;;4.95;1.20;;;11.40;98.70;;;;;;5052634;28;20407;-60
2023/04/02 12:28:32;;;;;;;4.85;1.20;;;11.30;99.20;;;;;;5023112;28;20518;-59
2023/04/02 12:31:06;;;;;;;1.35;0.70;;;11.40;99.60;;;;;;5027135;28;20484;-61
2023/04/02 12:33:37;;;;;;;3.47;1.13;;;11.50;99.40;;;;;;5029180;28;20484;-61
2023/04/02 12:36:23;;;;;;;5.57;1.50;;;11.70;99.90;;;;;;5043026;28;20036;-61
2023/04/02 12:38:55;;;;;;;4.55;1.10;;;11.70;98.70;;;;;;5044246;28;20059;-61
2023/04/02 12:41:23;;;;;;;6.10;1.08;;;11.70;99.20;;;;;;5046100;28;20388;-60
2023/04/02 12:44:11;;;;;;;2.83;0.60;;;11.60;98.40;;;;;;5046962;28;20279;-61
2023/04/02 12:46:38;;;;;;;4.32;1.00;;;11.70;99.30;;;;;;5024076;28;20049;-62
2023/04/02 12:49:05;;;;;;;3.17;1.20;;;11.90;99.60;;;;;;5039804;28;20040;-60
2023/04/02 12:51:32;;;;;;;2.50;0.80;;;12.00;98.40;;;;;;5027490;28;20032;-61
2023/04/02 12:53:58;;;;;;;2.50;0.90;;;12.00;98.70;;;;;;5022527;28;20056;-61
2023/04/02 12:56:24;;;;;;;2.03;0.85;;;11.90;98.50;;;;;;5045240;28;20037;-60
2023/04/02 12:58:58;;;;;;;3.30;0.70;;;11.90;98.30;;;;;;5023353;28;20049;-60
2023/04/02 13:01:30;;;;;;;3.75;1.13;;;11.80;98.30;;;;;;5039793;28;20180;-61
2023/04/02 13:04:03;;;;;;;2.47;0.77;;;11.80;98.70;;;;;;5046549;28;20064;-60
2023/04/02 13:06:29;;;;;;;2.75;0.70;;;12.00;98.10;;;;;;5044550;28;20488;-61
2023/04/02 13:08:56;;;;;;;2.03;0.73;;;11.90;97.20;;;;;;5030144;28;20033;-62
2023/04/02 13:11:32;;;;;;;2.53;0.80;;;11.90;98.40;;;;;;5043799;28;20087;-60
2023/04/02 13:14:01;;;;;;;2.17;1.02;;;11.90;98.40;;;;;;5009893;28;20531;-61
2023/04/02 13:16:33;;;;;;;2.30;0.85;;;11.90;98.30;;;;;;5026426;28;20413;-61
2023/04/02 13:19:21;;;;;;;3.33;1.10;;;12.10;98.50;;;;;;5030964;28;20044;-62
2023/04/02 13:21:47;;;;;;;4.53;0.93;;;12.20;98.10;;;;;;5045255;28;20078;-61
2023/04/02 13:24:27;;;;;;;3.60;0.98;;;12.40;98.60;;;;;;5045307;28;20076;-61
2023/04/02 13:26:56;;;;;;;2.53;0.75;;;12.30;97.00;;;;;;5012750;28;20080;-61
2023/04/02 13:29:23;;;;;;;4.35;0.90;;;12.30;97.80;;;;;;5044188;28;20052;-61
2023/04/02 13:31:50;;;;;;;3.90;0.73;;;12.30;98.00;;;;;;5029037;28;20797;-61
2023/04/02 13:34:17;;;;;;;4.30;0.98;;;12.60;98.00;;;;;;5044097;28;20147;-60
2023/04/02 13:36:43;;;;;;;4.78;1.00;;;12.50;97.40;;;;;;5025777;28;20045;-61